sensor_id;sensor_type;location;lat;lon;timestamp;pressure;altitude;pressure_sealevel;temperature;humidity
54882;BME280;40775;51.448;4.742;2023-03-01T00:01:40;103010.19;;;1.36;100.00
54882;BME280;40775;51.448;4.742;2023-03-01T00:04:07;103015.34;;;1.36;100.00
54882;BME280;40775;51.448;4.742;2023-03-01T00:06:35;103014.81;;;1.30;100.00
54882;BME280;40775;51.448;4.742;2023-03-01T00:09:02;103024.72;;;1.26;100.00
54882;BME280;40775;51.448;4.742;2023-03-01T00:11:32;103028.44;;;1.19;100.00
54882;BME280;40775;51.448;4.742;2023-03-01T00:14:01;103023.31;;;1.10;100.00
54882;BME280;40775;51.448;4.742;2023-03-01T00:16:35;103040.97;;;1.06;100.00
54882;BME280;40775;51.448;4.742;2023-03-01T00:19:07;103035.44;;;0.92;100.00
54882;BME280;40775;51.448;4.742;2023-03-01T00:21:34;103037.06;;;1.01;100.00
54882;BME280;40775;51.448;4.742;2023-03-01T00:24:02;103039.94;;;1.04;100.00
54882;BME280;40775;51.448;4.742;2023-03-01T00:26:29;103040.81;;;1.13;100.00
54882;BME280;40775;51.448;4.742;2023-03-01T00:28:58;103043.31;;;1.21;100.00
54882;BME280;40775;51.448;4.742;2023-03-01T00:31:28;103039.69;;;1.19;100.00
54882;BME280;40775;51.448;4.742;2023-03-01T00:34:03;103038.28;;;1.23;100.00
54882;BME280;40775;51.448;4.742;2023-03-01T00:36:34;103034.94;;;1.24;100.00
54882;BME280;40775;51.448;4.742;2023-03-01T00:39:04;103034.53;;;1.19;100.00
54882;BME280;40775;51.448;4.742;2023-03-01T00:41:31;103032.06;;;1.21;100.00
54882;BME280;40775;51.448;4.742;2023-03-01T00:44:00;103031.31;;;1.22;100.00
54882;BME280;40775;51.448;4.742;2023-03-01T00:46:27;103026.91;;;1.21;100.00
54882;BME280;40775;51.448;4.742;2023-03-01T00:48:57;103019.34;;;1.14;100.00
54882;BME280;40775;51.448;4.742;2023-03-01T00:51:27;103017.84;;;1.07;100.00
54882;BME280;40775;51.448;4.742;2023-03-01T00:53:57;103020.56;;;1.09;100.00
54882;BME280;40775;51.448;4.742;2023-03-01T00:56:26;103019.38;;;1.05;100.00
54882;BME280;40775;51.448;4.742;2023-03-01T00:58:53;103020.56;;;1.09;100.00
54882;BME280;40775;51.448;4.742;2023-03-01T01:01:24;103022.16;;;0.98;100.00
54882;BME280;40775;51.448;4.742;2023-03-01T01:03:58;103025.56;;;0.88;100.00
54882;BME280;40775;51.448;4.742;2023-03-01T01:09:05;103019.91;;;0.92;100.00
54882;BME280;40775;51.448;4.742;2023-03-01T01:11:33;103028.63;;;0.84;100.00
54882;BME280;40775;51.448;4.742;2023-03-01T01:14:02;103024.69;;;0.79;100.00
54882;BME280;40775;51.448;4.742;2023-03-01T01:16:30;103018.94;;;0.73;100.00
54882;BME280;40775;51.448;4.742;2023-03-01T01:18:57;103009.38;;;0.72;100.00
54882;BME280;40775;51.448;4.742;2023-03-01T01:21:25;103011.03;;;0.72;100.00
54882;BME280;40775;51.448;4.742;2023-03-01T01:23:53;103000.50;;;0.79;100.00
54882;BME280;40775;51.448;4.742;2023-03-01T01:26:24;102999.59;;;0.78;100.00
54882;BME280;40775;51.448;4.742;2023-03-01T01:28:52;102995.03;;;0.84;100.00
54882;BME280;40775;51.448;4.742;2023-03-01T01:31:20;102994.72;;;0.81;100.00
54882;BME280;40775;51.448;4.742;2023-03-01T01:33:54;102994.78;;;0.73;100.00
54882;BME280;40775;51.448;4.742;2023-03-01T01:36:22;102982.47;;;0.70;100.00
54882;BME280;40775;51.448;4.742;2023-03-01T01:38:49;102984.13;;;0.70;100.00
54882;BME280;40775;51.448;4.742;2023-03-01T01:41:17;102984.34;;;0.63;100.00
54882;BME280;40775;51.448;4.742;2023-03-01T01:44:11;102978.34;;;0.72;100.00
54882;BME280;40775;51.448;4.742;2023-03-01T01:49:59;102965.97;;;0.59;100.00
54882;BME280;40775;51.448;4.742;2023-03-01T01:52:31;102967.63;;;0.59;100.00
54882;BME280;40775;51.448;4.742;2023-03-01T01:55:11;102954.88;;;0.52;100.00
54882;BME280;40775;51.448;4.742;2023-03-01T01:57:45;102960.03;;;0.52;100.00
54882;BME280;40775;51.448;4.742;2023-03-01T02:00:20;102956.28;;;0.48;100.00
54882;BME280;40775;51.448;4.742;2023-03-01T02:02:52;102950.47;;;0.51;100.00
54882;BME280;40775;51.448;4.742;2023-03-01T02:05:55;102953.81;;;0.50;100.00
54882;BME280;40775;51.448;4.742;2023-03-01T02:08:27;102947.31;;;0.45;100.00
54882;BME280;40775;51.448;4.742;2023-03-01T02:10:55;102954.94;;;0.43;100.00
54882;BME280;40775;51.448;4.742;2023-03-01T02:13:23;102955.25;;;0.38;100.00
54882;BME280;40775;51.448;4.742;2023-03-01T02:15:50;102954.50;;;0.39;100.00
54882;BME280;40775;51.448;4.742;2023-03-01T02:18:20;102951.78;;;0.37;100.00
54882;BME280;40775;51.448;4.742;2023-03-01T02:23:23;102945.84;;;0.38;100.00
54882;BME280;40775;51.448;4.742;2023-03-01T02:28:43;102935.94;;;0.43;100.00
54882;BME280;40775;51.448;4.742;2023-03-01T02:31:17;102943.88;;;0.36;100.00
54882;BME280;40775;51.448;4.742;2023-03-01T02:34:04;102938.44;;;0.33;100.00
54882;BME280;40775;51.448;4.742;2023-03-01T02:36:37;102929.72;;;0.41;100.00
54882;BME280;40775;51.448;4.742;2023-03-01T02:39:08;102933.69;;;0.37;100.00
54882;BME280;40775;51.448;4.742;2023-03-01T02:41:48;102939.47;;;0.35;100.00
54882;BME280;40775;51.448;4.742;2023-03-01T02:44:16;102937.25;;;0.20;100.00
54882;BME280;40775;51.448;4.742;2023-03-01T02:46:49;102930.41;;;0.21;100.00
54882;BME280;40775;51.448;4.742;2023-03-01T02:49:30;102934.19;;;0.24;100.00
54882;BME280;40775;51.448;4.742;2023-03-01T02:55:12;102937.13;;;0.10;100.00
54882;BME280;40775;51.448;4.742;2023-03-01T02:57:44;102941.06;;;0.15;100.00
54882;BME280;40775;51.448;4.742;2023-03-01T03:00:28;102937.44;;;0.13;100.00
54882;BME280;40775;51.448;4.742;2023-03-01T03:02:57;102945.97;;;-0.05;100.00
54882;BME280;40775;51.448;4.742;2023-03-01T03:05:30;102930.56;;;-0.22;100.00
54882;BME280;40775;51.448;4.742;2023-03-01T03:08:01;102933.59;;;-0.26;100.00
54882;BME280;40775;51.448;4.742;2023-03-01T03:10:33;102930.28;;;-0.43;100.00
54882;BME280;40775;51.448;4.742;2023-03-01T03:13:05;102936.94;;;-0.36;100.00
54882;BME280;40775;51.448;4.742;2023-03-01T03:15:32;102935.09;;;-0.28;100.00
54882;BME280;40775;51.448;4.742;2023-03-01T03:18:05;102934.19;;;-0.29;100.00
54882;BME280;40775;51.448;4.742;2023-03-01T03:20:33;102926.75;;;-0.17;100.00
54882;BME280;40775;51.448;4.742;2023-03-01T03:23:01;102925.41;;;-0.22;100.00
54882;BME280;40775;51.448;4.742;2023-03-01T03:25:29;102921.75;;;-0.24;100.00
54882;BME280;40775;51.448;4.742;2023-03-01T03:27:57;102919.16;;;-0.16;100.00
54882;BME280;40775;51.448;4.742;2023-03-01T03:30:29;102924.41;;;-0.06;100.00
54882;BME280;40775;51.448;4.742;2023-03-01T03:32:58;102919.41;;;-0.04;100.00
54882;BME280;40775;51.448;4.742;2023-03-01T03:35:29;102916.66;;;0.03;100.00
54882;BME280;40775;51.448;4.742;2023-03-01T03:38:01;102927.44;;;0.08;100.00
54882;BME280;40775;51.448;4.742;2023-03-01T03:40:46;102926.38;;;0.06;100.00
54882;BME280;40775;51.448;4.742;2023-03-01T03:43:20;102921.94;;;0.13;100.00
54882;BME280;40775;51.448;4.742;2023-03-01T03:45:50;102924.38;;;0.12;100.00
54882;BME280;40775;51.448;4.742;2023-03-01T03:48:18;102919.53;;;0.06;100.00
54882;BME280;40775;51.448;4.742;2023-03-01T03:50:54;102915.00;;;0.04;100.00
54882;BME280;40775;51.448;4.742;2023-03-01T03:53:24;102917.56;;;0.04;100.00
54882;BME280;40775;51.448;4.742;2023-03-01T03:55:52;102912.84;;;-0.01;100.00
54882;BME280;40775;51.448;4.742;2023-03-01T03:58:22;102916.25;;;-0.10;100.00
54882;BME280;40775;51.448;4.742;2023-03-01T04:00:53;102920.31;;;-0.04;100.00
54882;BME280;40775;51.448;4.742;2023-03-01T04:03:25;102909.34;;;-0.01;100.00
54882;BME280;40775;51.448;4.742;2023-03-01T04:05:52;102908.63;;;0.00;100.00
54882;BME280;40775;51.448;4.742;2023-03-01T04:08:22;102915.28;;;-0.02;100.00
54882;BME280;40775;51.448;4.742;2023-03-01T04:10:52;102914.41;;;-0.11;100.00
54882;BME280;40775;51.448;4.742;2023-03-01T04:13:21;102908.78;;;-0.07;100.00
54882;BME280;40775;51.448;4.742;2023-03-01T04:15:53;102905.16;;;-0.09;100.00
54882;BME280;40775;51.448;4.742;2023-03-01T04:18:23;102911.41;;;-0.16;100.00
54882;BME280;40775;51.448;4.742;2023-03-01T04:20:50;102910.31;;;-0.09;100.00
54882;BME280;40775;51.448;4.742;2023-03-01T04:23:20;102909.25;;;-0.11;100.00
54882;BME280;40775;51.448;4.742;2023-03-01T04:25:55;102900.75;;;-0.10;100.00
54882;BME280;40775;51.448;4.742;2023-03-01T04:28:32;102900.47;;;-0.13;100.00
54882;BME280;40775;51.448;4.742;2023-03-01T04:31:12;102905.31;;;-0.16;100.00
54882;BME280;40775;51.448;4.742;2023-03-01T04:33:53;102900.13;;;-0.08;100.00
54882;BME280;40775;51.448;4.742;2023-03-01T04:36:24;102898.63;;;-0.14;100.00
54882;BME280;40775;51.448;4.742;2023-03-01T04:38:53;102910.63;;;-0.15;100.00
54882;BME280;40775;51.448;4.742;2023-03-01T04:41:23;102901.69;;;-0.18;100.00
54882;BME280;40775;51.448;4.742;2023-03-01T04:43:50;102899.88;;;-0.28;100.00
54882;BME280;40775;51.448;4.742;2023-03-01T04:46:20;102904.59;;;-0.24;100.00
54882;BME280;40775;51.448;4.742;2023-03-01T04:48:47;102900.19;;;-0.25;100.00
54882;BME280;40775;51.448;4.742;2023-03-01T04:51:14;102900.78;;;-0.27;100.00
54882;BME280;40775;51.448;4.742;2023-03-01T04:53:43;102899.59;;;-0.22;100.00
54882;BME280;40775;51.448;4.742;2023-03-01T04:56:11;102893.94;;;-0.18;100.00
54882;BME280;40775;51.448;4.742;2023-03-01T04:58:41;102899.59;;;-0.22;100.00
54882;BME280;40775;51.448;4.742;2023-03-01T05:01:17;102893.03;;;-0.19;100.00
54882;BME280;40775;51.448;4.742;2023-03-01T05:03:49;102886.16;;;-0.10;100.00
54882;BME280;40775;51.448;4.742;2023-03-01T05:06:17;102873.88;;;-0.12;100.00
54882;BME280;40775;51.448;4.742;2023-03-01T05:08:45;102865.31;;;-0.03;100.00
54882;BME280;40775;51.448;4.742;2023-03-01T05:11:12;102872.50;;;-0.09;100.00
54882;BME280;40775;51.448;4.742;2023-03-01T05:13:40;102863.69;;;-0.11;100.00
54882;BME280;40775;51.448;4.742;2023-03-01T05:16:08;102855.22;;;-0.18;100.00
54882;BME280;40775;51.448;4.742;2023-03-01T05:18:39;102851.88;;;-0.17;100.00
54882;BME280;40775;51.448;4.742;2023-03-01T05:21:12;102850.97;;;-0.18;100.00
54882;BME280;40775;51.448;4.742;2023-03-01T05:23:43;102844.44;;;-0.14;100.00
54882;BME280;40775;51.448;4.742;2023-03-01T05:26:10;102854.47;;;-0.17;100.00
54882;BME280;40775;51.448;4.742;2023-03-01T05:28:54;102847.31;;;-0.11;100.00
54882;BME280;40775;51.448;4.742;2023-03-01T05:31:26;102850.06;;;-0.18;100.00
54882;BME280;40775;51.448;4.742;2023-03-01T05:33:53;102848.53;;;-0.16;100.00
54882;BME280;40775;51.448;4.742;2023-03-01T05:36:21;102845.81;;;-0.18;100.00
54882;BME280;40775;51.448;4.742;2023-03-01T05:38:48;102835.50;;;-0.18;100.00
54882;BME280;40775;51.448;4.742;2023-03-01T05:41:15;102837.66;;;-0.22;100.00
54882;BME280;40775;51.448;4.742;2023-03-01T05:43:43;102834.91;;;-0.24;100.00
54882;BME280;40775;51.448;4.742;2023-03-01T05:46:11;102840.69;;;-0.26;100.00
54882;BME280;40775;51.448;4.742;2023-03-01T05:48:40;102827.22;;;-0.41;100.00
54882;BME280;40775;51.448;4.742;2023-03-01T05:51:07;102822.22;;;-0.40;100.00
54882;BME280;40775;51.448;4.742;2023-03-01T05:53:34;102823.56;;;-0.35;100.00
54882;BME280;40775;51.448;4.742;2023-03-01T05:56:04;102824.50;;;-0.43;100.00
54882;BME280;40775;51.448;4.742;2023-03-01T05:58:31;102821.91;;;-0.43;100.00
54882;BME280;40775;51.448;4.742;2023-03-01T06:00:58;102824.63;;;-0.41;100.00
54882;BME280;40775;51.448;4.742;2023-03-01T06:03:25;102818.88;;;-0.39;100.00
54882;BME280;40775;51.448;4.742;2023-03-01T06:05:56;102824.34;;;-0.44;100.00
54882;BME280;40775;51.448;4.742;2023-03-01T06:08:24;102823.72;;;-0.42;100.00
54882;BME280;40775;51.448;4.742;2023-03-01T06:10:53;102823.44;;;-0.45;100.00
54882;BME280;40775;51.448;4.742;2023-03-01T06:13:20;102824.97;;;-0.47;100.00
54882;BME280;40775;51.448;4.742;2023-03-01T06:15:54;102822.81;;;-0.42;100.00
54882;BME280;40775;51.448;4.742;2023-03-01T06:18:21;102833.16;;;-0.42;100.00
54882;BME280;40775;51.448;4.742;2023-03-01T06:21:03;102822.25;;;-0.48;100.00
54882;BME280;40775;51.448;4.742;2023-03-01T06:23:31;102829.66;;;-0.43;100.00
54882;BME280;40775;51.448;4.742;2023-03-01T06:25:58;102837.09;;;-0.46;100.00
54882;BME280;40775;51.448;4.742;2023-03-01T06:28:25;102838.63;;;-0.48;100.00
54882;BME280;40775;51.448;4.742;2023-03-01T06:30:52;102835.28;;;-0.47;100.00
54882;BME280;40775;51.448;4.742;2023-03-01T06:33:20;102830.59;;;-0.51;100.00
54882;BME280;40775;51.448;4.742;2023-03-01T06:35:48;102837.09;;;-0.46;100.00
54882;BME280;40775;51.448;4.742;2023-03-01T06:38:15;102838.47;;;-0.58;100.00
54882;BME280;40775;51.448;4.742;2023-03-01T06:40:51;102835.91;;;-0.58;100.00
54882;BME280;40775;51.448;4.742;2023-03-01T06:43:18;102837.28;;;-0.62;100.00
54882;BME280;40775;51.448;4.742;2023-03-01T06:45:45;102839.03;;;0.94;100.00
54882;BME280;40775;51.448;4.742;2023-03-01T06:48:12;102837.19;;;4.30;100.00
54882;BME280;40775;51.448;4.742;2023-03-01T06:50:39;102833.19;;;6.47;100.00
54882;BME280;40775;51.448;4.742;2023-03-01T06:53:06;102824.75;;;7.68;100.00
54882;BME280;40775;51.448;4.742;2023-03-01T06:55:33;102823.47;;;8.18;100.00
54882;BME280;40775;51.448;4.742;2023-03-01T06:58:02;102817.53;;;8.48;100.00
54882;BME280;40775;51.448;4.742;2023-03-01T07:00:30;102825.31;;;8.76;100.00
54882;BME280;40775;51.448;4.742;2023-03-01T07:03:01;102823.06;;;8.97;100.00
54882;BME280;40775;51.448;4.742;2023-03-01T07:05:30;102819.63;;;9.13;100.00
54882;BME280;40775;51.448;4.742;2023-03-01T07:07:57;102821.47;;;9.30;100.00
54882;BME280;40775;51.448;4.742;2023-03-01T07:10:24;102825.91;;;9.46;100.00
54882;BME280;40775;51.448;4.742;2023-03-01T07:12:56;102816.97;;;9.58;100.00
54882;BME280;40775;51.448;4.742;2023-03-01T07:15:24;102816.94;;;9.73;100.00
54882;BME280;40775;51.448;4.742;2023-03-01T07:17:52;102809.03;;;9.88;100.00
54882;BME280;40775;51.448;4.742;2023-03-01T07:20:20;102813.13;;;9.99;100.00
54882;BME280;40775;51.448;4.742;2023-03-01T07:22:54;102803.19;;;10.10;100.00
54882;BME280;40775;51.448;4.742;2023-03-01T07:25:21;102810.88;;;10.21;100.00
54882;BME280;40775;51.448;4.742;2023-03-01T07:27:52;102801.59;;;10.28;100.00
54882;BME280;40775;51.448;4.742;2023-03-01T07:30:21;102791.34;;;10.33;100.00
54882;BME280;40775;51.448;4.742;2023-03-01T07:32:48;102795.44;;;10.44;100.00
54882;BME280;40775;51.448;4.742;2023-03-01T07:35:16;102795.09;;;10.54;100.00
54882;BME280;40775;51.448;4.742;2023-03-01T07:37:43;102797.13;;;10.60;100.00
54882;BME280;40775;51.448;4.742;2023-03-01T07:40:11;102805.50;;;10.69;100.00
54882;BME280;40775;51.448;4.742;2023-03-01T07:42:38;102818.09;;;10.76;100.00
54882;BME280;40775;51.448;4.742;2023-03-01T07:45:06;102814.06;;;10.82;100.00
54882;BME280;40775;51.448;4.742;2023-03-01T07:47:35;102815.09;;;10.86;100.00
54882;BME280;40775;51.448;4.742;2023-03-01T07:50:04;102817.13;;;10.92;100.00
54882;BME280;40775;51.448;4.742;2023-03-01T07:52:31;102817.47;;;10.98;100.00
54882;BME280;40775;51.448;4.742;2023-03-01T07:54:58;102820.25;;;11.01;100.00
54882;BME280;40775;51.448;4.742;2023-03-01T07:57:25;102822.19;;;11.05;100.00
54882;BME280;40775;51.448;4.742;2023-03-01T07:59:52;102823.31;;;11.10;100.00
54882;BME280;40775;51.448;4.742;2023-03-01T08:02:19;102819.88;;;11.11;100.00
54882;BME280;40775;51.448;4.742;2023-03-01T08:04:46;102821.75;;;11.13;100.00
54882;BME280;40775;51.448;4.742;2023-03-01T08:07:13;102821.06;;;11.18;100.00
54882;BME280;40775;51.448;4.742;2023-03-01T08:09:40;102826.41;;;11.19;100.00
54882;BME280;40775;51.448;4.742;2023-03-01T08:12:07;102823.13;;;11.23;100.00
54882;BME280;40775;51.448;4.742;2023-03-01T08:14:34;102824.94;;;11.24;100.00
54882;BME280;40775;51.448;4.742;2023-03-01T08:17:01;102826.72;;;11.25;100.00
54882;BME280;40775;51.448;4.742;2023-03-01T08:19:30;102815.38;;;11.26;100.00
54882;BME280;40775;51.448;4.742;2023-03-01T08:21:57;102821.53;;;11.27;100.00
54882;BME280;40775;51.448;4.742;2023-03-01T08:24:25;102822.66;;;11.32;100.00
54882;BME280;40775;51.448;4.742;2023-03-01T08:26:52;102812.06;;;11.30;100.00
54882;BME280;40775;51.448;4.742;2023-03-01T08:29:20;102823.72;;;11.35;100.00
54882;BME280;40775;51.448;4.742;2023-03-01T08:31:48;102820.31;;;11.38;100.00
54882;BME280;40775;51.448;4.742;2023-03-01T08:34:17;102807.19;;;11.38;100.00
54882;BME280;40775;51.448;4.742;2023-03-01T08:36:45;102813.34;;;11.38;100.00
54882;BME280;40775;51.448;4.742;2023-03-01T08:39:16;102819.66;;;11.42;100.00
54882;BME280;40775;51.448;4.742;2023-03-01T08:41:43;102813.34;;;11.38;100.00
54882;BME280;40775;51.448;4.742;2023-03-01T08:44:15;102811.59;;;11.39;100.00
54882;BME280;40775;51.448;4.742;2023-03-01T08:46:44;102809.06;;;11.40;100.00
54882;BME280;40775;51.448;4.742;2023-03-01T08:49:15;102809.13;;;11.42;100.00
54882;BME280;40775;51.448;4.742;2023-03-01T08:51:44;102804.06;;;11.46;100.00
54882;BME280;40775;51.448;4.742;2023-03-01T08:54:17;102803.09;;;11.44;100.00
54882;BME280;40775;51.448;4.742;2023-03-01T08:56:45;102804.00;;;11.45;100.00
54882;BME280;40775;51.448;4.742;2023-03-01T08:59:14;102790.09;;;11.48;100.00
54882;BME280;40775;51.448;4.742;2023-03-01T09:01:42;102778.75;;;11.49;100.00
54882;BME280;40775;51.448;4.742;2023-03-01T09:04:14;102780.56;;;11.50;100.00
54882;BME280;40775;51.448;4.742;2023-03-01T09:06:42;102780.47;;;11.48;100.00
54882;BME280;40775;51.448;4.742;2023-03-01T09:09:17;102772.66;;;11.50;100.00
54882;BME280;40775;51.448;4.742;2023-03-01T09:11:45;102770.03;;;11.50;100.00
54882;BME280;40775;51.448;4.742;2023-03-01T09:14:13;102774.63;;;11.54;100.00
54882;BME280;40775;51.448;4.742;2023-03-01T09:16:41;102760.59;;;11.53;100.00
54882;BME280;40775;51.448;4.742;2023-03-01T09:19:08;102759.00;;;11.57;100.00
54882;BME280;40775;51.448;4.742;2023-03-01T09:21:35;102752.84;;;11.56;100.00
54882;BME280;40775;51.448;4.742;2023-03-01T09:24:13;102755.59;;;11.59;100.00
54882;BME280;40775;51.448;4.742;2023-03-01T09:26:41;102743.34;;;11.60;100.00
54882;BME280;40775;51.448;4.742;2023-03-01T09:29:08;102743.41;;;11.61;100.00
54882;BME280;40775;51.448;4.742;2023-03-01T09:31:36;102745.28;;;11.64;100.00
54882;BME280;40775;51.448;4.742;2023-03-01T09:34:04;102736.56;;;11.65;100.00
54882;BME280;40775;51.448;4.742;2023-03-01T09:36:31;102737.13;;;11.58;100.00
54882;BME280;40775;51.448;4.742;2023-03-01T09:39:00;102735.25;;;11.55;100.00
54882;BME280;40775;51.448;4.742;2023-03-01T09:42:02;102730.69;;;11.51;100.00
54882;BME280;40775;51.448;4.742;2023-03-01T09:44:58;102720.16;;;11.51;100.00
54882;BME280;40775;51.448;4.742;2023-03-01T09:47:38;102725.75;;;11.59;100.00
54882;BME280;40775;51.448;4.742;2023-03-01T09:50:12;102718.00;;;11.62;100.00
54882;BME280;40775;51.448;4.742;2023-03-01T09:53:04;102714.41;;;11.60;100.00
54882;BME280;40775;51.448;4.742;2023-03-01T09:56:04;102720.63;;;11.62;100.00
54882;BME280;40775;51.448;4.742;2023-03-01T09:58:48;102712.75;;;11.62;100.00
54882;BME280;40775;51.448;4.742;2023-03-01T10:02:11;102716.34;;;11.64;100.00
54882;BME280;40775;51.448;4.742;2023-03-01T10:04:57;102723.34;;;11.63;100.00
54882;BME280;40775;51.448;4.742;2023-03-01T10:10:37;102704.72;;;11.59;100.00
54882;BME280;40775;51.448;4.742;2023-03-01T10:15:55;102709.69;;;11.53;100.00
54882;BME280;40775;51.448;4.742;2023-03-01T10:18:30;102718.56;;;11.55;100.00
54882;BME280;40775;51.448;4.742;2023-03-01T10:21:03;102711.56;;;11.55;100.00
54882;BME280;40775;51.448;4.742;2023-03-01T10:23:34;102707.22;;;11.56;100.00
54882;BME280;40775;51.448;4.742;2023-03-01T10:29:14;102704.09;;;11.64;100.00
54882;BME280;40775;51.448;4.742;2023-03-01T10:31:49;102696.28;;;11.66;100.00
54882;BME280;40775;51.448;4.742;2023-03-01T10:34:25;102700.50;;;11.62;100.00
54882;BME280;40775;51.448;4.742;2023-03-01T10:37:19;102691.00;;;11.66;100.00
54882;BME280;40775;51.448;4.742;2023-03-01T10:40:08;102692.81;;;11.67;100.00
54882;BME280;40775;51.448;4.742;2023-03-01T10:42:46;102687.41;;;11.64;100.00
54882;BME280;40775;51.448;4.742;2023-03-01T10:45:36;102689.22;;;11.65;100.00
54882;BME280;40775;51.448;4.742;2023-03-01T10:48:19;102686.50;;;11.63;100.00
54882;BME280;40775;51.448;4.742;2023-03-01T10:53:32;102684.06;;;11.68;100.00
54882;BME280;40775;51.448;4.742;2023-03-01T10:56:09;102681.59;;;11.71;100.00
54882;BME280;40775;51.448;4.742;2023-03-01T10:58:39;102677.34;;;11.74;100.00
54882;BME280;40775;51.448;4.742;2023-03-01T11:03:43;102666.75;;;11.73;100.00
54882;BME280;40775;51.448;4.742;2023-03-01T11:08:49;102670.22;;;11.72;100.00
54882;BME280;40775;51.448;4.742;2023-03-01T11:11:33;102669.78;;;11.81;100.00
54882;BME280;40775;51.448;4.742;2023-03-01T11:14:20;102669.53;;;11.76;100.00
54882;BME280;40775;51.448;4.742;2023-03-01T11:22:29;102656.56;;;11.79;100.00
54882;BME280;40775;51.448;4.742;2023-03-01T11:24:57;102646.94;;;11.80;100.00
54882;BME280;40775;51.448;4.742;2023-03-01T11:27:44;102648.81;;;11.82;100.00
54882;BME280;40775;51.448;4.742;2023-03-01T11:30:31;102643.47;;;11.81;100.00
54882;BME280;40775;51.448;4.742;2023-03-01T11:35:47;102645.22;;;11.80;100.00
54882;BME280;40775;51.448;4.742;2023-03-01T11:38:25;102637.56;;;11.86;100.00
54882;BME280;40775;51.448;4.742;2023-03-01T11:44:00;102625.44;;;11.90;100.00
54882;BME280;40775;51.448;4.742;2023-03-01T11:58:49;102625.25;;;11.85;100.00
54882;BME280;40775;51.448;4.742;2023-03-01T12:10:40;102613.97;;;11.88;100.00
54882;BME280;40775;51.448;4.742;2023-03-01T12:16:12;102610.94;;;11.79;100.00
54882;BME280;40775;51.448;4.742;2023-03-01T12:22:29;102604.31;;;11.88;100.00
54882;BME280;40775;51.448;4.742;2023-03-01T12:25:25;102602.41;;;11.84;100.00
54882;BME280;40775;51.448;4.742;2023-03-01T12:33:43;102590.41;;;11.91;100.00
54882;BME280;40775;51.448;4.742;2023-03-01T12:36:27;102575.94;;;12.02;100.00
54882;BME280;40775;51.448;4.742;2023-03-01T12:39:24;102573.00;;;11.94;100.00
54882;BME280;40775;51.448;4.742;2023-03-01T12:42:40;102567.75;;;11.94;100.00
54882;BME280;40775;51.448;4.742;2023-03-01T12:48:47;102560.16;;;12.02;100.00
54882;BME280;40775;51.448;4.742;2023-03-01T12:51:24;102546.69;;;11.94;100.00
54882;BME280;40775;51.448;4.742;2023-03-01T12:53:54;102547.50;;;11.93;100.00
54882;BME280;40775;51.448;4.742;2023-03-01T12:56:29;102547.69;;;11.98;100.00
54882;BME280;40775;51.448;4.742;2023-03-01T13:03:13;102535.38;;;11.97;100.00
54882;BME280;40775;51.448;4.742;2023-03-01T13:08:19;102520.59;;;12.00;100.00
54882;BME280;40775;51.448;4.742;2023-03-01T13:10:58;102517.97;;;12.00;100.00
54882;BME280;40775;51.448;4.742;2023-03-01T13:13:29;102516.44;;;12.05;100.00
54882;BME280;40775;51.448;4.742;2023-03-01T13:15:57;102506.88;;;12.07;100.00
54882;BME280;40775;51.448;4.742;2023-03-01T13:18:40;102515.41;;;12.02;100.00
54882;BME280;40775;51.448;4.742;2023-03-01T13:21:07;102510.25;;;12.05;100.00
54882;BME280;40775;51.448;4.742;2023-03-01T13:23:38;102506.81;;;12.06;100.00
54882;BME280;40775;51.448;4.742;2023-03-01T13:44:33;102494.75;;;12.11;100.00
54882;BME280;40775;51.448;4.742;2023-03-01T13:47:12;102496.59;;;12.14;100.00
54882;BME280;40775;51.448;4.742;2023-03-01T13:50:02;102488.94;;;12.20;100.00
54882;BME280;40775;51.448;4.742;2023-03-01T13:52:56;102481.88;;;12.19;100.00
54882;BME280;40775;51.448;4.742;2023-03-01T13:55:32;102472.91;;;12.14;100.00
54882;BME280;40775;51.448;4.742;2023-03-01T13:58:21;102472.84;;;12.12;100.00
54882;BME280;40775;51.448;4.742;2023-03-01T14:01:07;102463.59;;;12.01;100.00
54882;BME280;40775;51.448;4.742;2023-03-01T14:03:46;102466.28;;;12.02;100.00
54882;BME280;40775;51.448;4.742;2023-03-01T14:06:18;102470.97;;;12.10;100.00
54882;BME280;40775;51.448;4.742;2023-03-01T14:08:49;102461.28;;;12.09;100.00
54882;BME280;40775;51.448;4.742;2023-03-01T14:17:38;102446.38;;;12.09;100.00
54882;BME280;40775;51.448;4.742;2023-03-01T14:20:27;102448.00;;;12.05;100.00
54882;BME280;40775;51.448;4.742;2023-03-01T14:23:01;102441.91;;;12.06;100.00
54882;BME280;40775;51.448;4.742;2023-03-01T14:25:32;102440.41;;;12.13;100.00
54882;BME280;40775;51.448;4.742;2023-03-01T14:28:18;102441.13;;;12.09;100.00
54882;BME280;40775;51.448;4.742;2023-03-01T14:30:48;102434.00;;;12.06;100.00
54882;BME280;40775;51.448;4.742;2023-03-01T14:33:28;102428.88;;;12.10;100.00
54882;BME280;40775;51.448;4.742;2023-03-01T14:38:40;102420.19;;;12.12;100.00
54882;BME280;40775;51.448;4.742;2023-03-01T14:41:26;102412.22;;;12.11;100.00
54882;BME280;40775;51.448;4.742;2023-03-01T14:44:02;102420.84;;;12.06;100.00
54882;BME280;40775;51.448;4.742;2023-03-01T14:46:37;102409.41;;;12.06;100.00
54882;BME280;40775;51.448;4.742;2023-03-01T14:49:13;102398.28;;;12.13;100.00
54882;BME280;40775;51.448;4.742;2023-03-01T14:54:35;102394.03;;;12.17;100.00
54882;BME280;40775;51.448;4.742;2023-03-01T14:57:04;102397.44;;;12.14;100.00
54882;BME280;40775;51.448;4.742;2023-03-01T14:59:33;102393.97;;;12.15;100.00
54882;BME280;40775;51.448;4.742;2023-03-01T15:02:01;102384.41;;;12.17;100.00
54882;BME280;40775;51.448;4.742;2023-03-01T15:04:28;102378.34;;;12.20;100.00
54882;BME280;40775;51.448;4.742;2023-03-01T15:06:57;102377.38;;;12.18;100.00